Ashford, Washington
Current Conditions -  °F | °C
As of 10:58 PM on Sunday 23 Nov 2014 (Local Time) from KGRF Reporting Station
Clear Clear  
Wind Chill: 36°   Ceiling: Unl
Heat Index: 41°   Visibility: 10mi
Dew Point: 41°   Wind: 8mph
Humidity: 99%   Direction: 150°SSE
Pressure: 30.34"   Gusts: NA
Location:  46.76°N, 122.03°W
Report Text: KGRF 240658Z AUTO 15007KT 10SM CLR 05/05 A3034 RMK AO2 SLP280 T00520050 PWINO $
Loading
Personal Weather Stations






























Interactive Weather Map New forecast layout! Learn more

10-Day Weather Forecast

Advertisements
Track Severe Weather on mobile